sensor_id;sensor_type;location;lat;lon;timestamp;pressure;altitude;pressure_sealevel;temperature
69007;BMP180;56061;51.748;19.620;2022-10-03T00:00:01;98419.20;;;10.40
69007;BMP180;56061;51.748;19.620;2022-10-03T00:02:44;98419.00;;;10.40
69007;BMP180;56061;51.748;19.620;2022-10-03T00:05:51;98419.80;;;10.40
69007;BMP180;56061;51.748;19.620;2022-10-03T00:16:52;98423.00;;;10.40
69007;BMP180;56061;51.748;19.620;2022-10-03T00:19:41;98417.60;;;10.40
69007;BMP180;56061;51.748;19.620;2022-10-03T00:25:29;98425.60;;;10.32
69007;BMP180;56061;51.748;19.620;2022-10-03T00:28:09;98419.80;;;10.34
69007;BMP180;56061;51.748;19.620;2022-10-03T00:31:02;98413.00;;;10.34
69007;BMP180;56061;51.748;19.620;2022-10-03T00:33:53;98416.60;;;10.40
69007;BMP180;56061;51.748;19.620;2022-10-03T00:36:59;98412.60;;;10.30
69007;BMP180;56061;51.748;19.620;2022-10-03T00:40:00;98415.40;;;10.32
69007;BMP180;56061;51.748;19.620;2022-10-03T00:43:02;98414.80;;;10.40
69007;BMP180;56061;51.748;19.620;2022-10-03T00:55:21;98402.80;;;10.40
69007;BMP180;56061;51.748;19.620;2022-10-03T00:58:35;98399.60;;;10.46
69007;BMP180;56061;51.748;19.620;2022-10-03T01:01:45;98403.40;;;10.50
69007;BMP180;56061;51.748;19.620;2022-10-03T01:07:49;98401.20;;;10.50
69007;BMP180;56061;51.748;19.620;2022-10-03T01:10:33;98392.40;;;10.50
69007;BMP180;56061;51.748;19.620;2022-10-03T01:16:12;98388.40;;;10.50
69007;BMP180;56061;51.748;19.620;2022-10-03T01:25:17;98381.60;;;10.48
69007;BMP180;56061;51.748;19.620;2022-10-03T01:31:08;98373.00;;;10.46
69007;BMP180;56061;51.748;19.620;2022-10-03T01:33:54;98379.00;;;10.46
69007;BMP180;56061;51.748;19.620;2022-10-03T01:36:33;98378.00;;;10.44
69007;BMP180;56061;51.748;19.620;2022-10-03T01:39:31;98375.40;;;10.40
69007;BMP180;56061;51.748;19.620;2022-10-03T01:42:11;98375.40;;;10.42
69007;BMP180;56061;51.748;19.620;2022-10-03T01:47:35;98372.20;;;10.40
69007;BMP180;56061;51.748;19.620;2022-10-03T01:50:34;98375.40;;;10.30
69007;BMP180;56061;51.748;19.620;2022-10-03T01:53:11;98381.60;;;10.20
69007;BMP180;56061;51.748;19.620;2022-10-03T01:55:57;98375.20;;;10.10
69007;BMP180;56061;51.748;19.620;2022-10-03T01:58:59;98383.00;;;10.10
69007;BMP180;56061;51.748;19.620;2022-10-03T02:01:52;98382.40;;;10.10
69007;BMP180;56061;51.748;19.620;2022-10-03T02:07:22;98384.80;;;10.00
69007;BMP180;56061;51.748;19.620;2022-10-03T02:12:47;98369.00;;;9.92
69007;BMP180;56061;51.748;19.620;2022-10-03T02:15:47;98365.60;;;9.92
69007;BMP180;56061;51.748;19.620;2022-10-03T02:18:38;98368.00;;;10.00
69007;BMP180;56061;51.748;19.620;2022-10-03T02:21:25;98366.60;;;10.00
69007;BMP180;56061;51.748;19.620;2022-10-03T02:30:09;98373.60;;;10.00
69007;BMP180;56061;51.748;19.620;2022-10-03T02:33:24;98379.40;;;10.00
69007;BMP180;56061;51.748;19.620;2022-10-03T02:39:35;98373.20;;;10.06
69007;BMP180;56061;51.748;19.620;2022-10-03T02:45:44;98379.60;;;10.10
69007;BMP180;56061;51.748;19.620;2022-10-03T02:52:36;98375.60;;;10.18
69007;BMP180;56061;51.748;19.620;2022-10-03T02:58:49;98364.80;;;10.28
69007;BMP180;56061;51.748;19.620;2022-10-03T03:01:39;98359.00;;;10.30
69007;BMP180;56061;51.748;19.620;2022-10-03T03:07:54;98356.20;;;10.40
69007;BMP180;56061;51.748;19.620;2022-10-03T03:10:57;98355.80;;;10.40
69007;BMP180;56061;51.748;19.620;2022-10-03T03:17:14;98346.60;;;10.44
69007;BMP180;56061;51.748;19.620;2022-10-03T03:19:50;98350.20;;;10.40
69007;BMP180;56061;51.748;19.620;2022-10-03T03:25:40;98349.40;;;10.50
69007;BMP180;56061;51.748;19.620;2022-10-03T03:28:39;98346.40;;;10.50
69007;BMP180;56061;51.748;19.620;2022-10-03T03:31:16;98342.20;;;10.50
69007;BMP180;56061;51.748;19.620;2022-10-03T03:34:30;98344.20;;;10.58
69007;BMP180;56061;51.748;19.620;2022-10-03T03:37:11;98337.80;;;10.58
69007;BMP180;56061;51.748;19.620;2022-10-03T03:40:21;98336.60;;;10.60
69007;BMP180;56061;51.748;19.620;2022-10-03T03:46:27;98344.00;;;10.60
69007;BMP180;56061;51.748;19.620;2022-10-03T03:55:44;98347.00;;;10.60
69007;BMP180;56061;51.748;19.620;2022-10-03T03:58:45;98341.20;;;10.60
69007;BMP180;56061;51.748;19.620;2022-10-03T04:04:44;98350.40;;;10.40
69007;BMP180;56061;51.748;19.620;2022-10-03T04:10:25;98349.20;;;10.40
69007;BMP180;56061;51.748;19.620;2022-10-03T04:13:44;98344.80;;;10.40
69007;BMP180;56061;51.748;19.620;2022-10-03T04:16:53;98346.80;;;10.40
69007;BMP180;56061;51.748;19.620;2022-10-03T04:20:12;98352.80;;;10.30
69007;BMP180;56061;51.748;19.620;2022-10-03T04:23:26;98352.80;;;10.30
69007;BMP180;56061;51.748;19.620;2022-10-03T04:32:52;98350.00;;;10.20
69007;BMP180;56061;51.748;19.620;2022-10-03T04:35:51;98347.00;;;10.30
69007;BMP180;56061;51.748;19.620;2022-10-03T04:41:44;98340.00;;;10.40
69007;BMP180;56061;51.748;19.620;2022-10-03T04:47:13;98339.40;;;10.40
69007;BMP180;56061;51.748;19.620;2022-10-03T04:49:57;98339.80;;;10.40
69007;BMP180;56061;51.748;19.620;2022-10-03T04:52:37;98341.20;;;10.40
69007;BMP180;56061;51.748;19.620;2022-10-03T04:55:38;98348.40;;;10.30
69007;BMP180;56061;51.748;19.620;2022-10-03T04:58:45;98349.60;;;10.20
69007;BMP180;56061;51.748;19.620;2022-10-03T05:01:43;98346.60;;;10.30
69007;BMP180;56061;51.748;19.620;2022-10-03T05:04:32;98347.20;;;10.30
69007;BMP180;56061;51.748;19.620;2022-10-03T05:07:37;98350.60;;;10.30
69007;BMP180;56061;51.748;19.620;2022-10-03T05:15:55;98345.40;;;10.40
69007;BMP180;56061;51.748;19.620;2022-10-03T05:18:52;98347.00;;;10.40
69007;BMP180;56061;51.748;19.620;2022-10-03T05:21:33;98348.40;;;10.50
69007;BMP180;56061;51.748;19.620;2022-10-03T05:24:25;98345.80;;;10.50
69007;BMP180;56061;51.748;19.620;2022-10-03T05:30:02;98338.40;;;10.40
69007;BMP180;56061;51.748;19.620;2022-10-03T05:32:42;98341.40;;;10.42
69007;BMP180;56061;51.748;19.620;2022-10-03T05:35:41;98340.80;;;10.46
69007;BMP180;56061;51.748;19.620;2022-10-03T05:44:11;98341.00;;;10.56
69007;BMP180;56061;51.748;19.620;2022-10-03T05:47:10;98343.40;;;10.60
69007;BMP180;56061;51.748;19.620;2022-10-03T05:50:55;98341.40;;;10.60
69007;BMP180;56061;51.748;19.620;2022-10-03T05:54:00;98336.20;;;10.50
69007;BMP180;56061;51.748;19.620;2022-10-03T06:11:33;98342.00;;;10.70
69007;BMP180;56061;51.748;19.620;2022-10-03T06:14:34;98337.20;;;10.80
69007;BMP180;56061;51.748;19.620;2022-10-03T06:27:38;98337.20;;;10.90
69007;BMP180;56061;51.748;19.620;2022-10-03T06:30:54;98338.00;;;11.00
69007;BMP180;56061;51.748;19.620;2022-10-03T06:34:14;98341.00;;;11.10
69007;BMP180;56061;51.748;19.620;2022-10-03T06:37:08;98332.80;;;11.20
69007;BMP180;56061;51.748;19.620;2022-10-03T06:40:11;98333.20;;;11.30
69007;BMP180;56061;51.748;19.620;2022-10-03T06:45:48;98330.20;;;11.32
69007;BMP180;56061;51.748;19.620;2022-10-03T06:55:02;98355.60;;;11.50
69007;BMP180;56061;51.748;19.620;2022-10-03T07:06:26;98353.80;;;11.70
69007;BMP180;56061;51.748;19.620;2022-10-03T07:27:47;98354.60;;;11.50
69007;BMP180;56061;51.748;19.620;2022-10-03T07:30:21;98351.20;;;11.20
69007;BMP180;56061;51.748;19.620;2022-10-03T07:33:26;98357.20;;;11.10
69007;BMP180;56061;51.748;19.620;2022-10-03T07:43:39;98360.00;;;11.10
69007;BMP180;56061;51.748;19.620;2022-10-03T07:49:21;98368.00;;;10.98
69007;BMP180;56061;51.748;19.620;2022-10-03T07:52:36;98369.40;;;10.90
69007;BMP180;56061;51.748;19.620;2022-10-03T07:55:30;98375.40;;;10.90
69007;BMP180;56061;51.748;19.620;2022-10-03T07:58:27;98375.20;;;10.86
69007;BMP180;56061;51.748;19.620;2022-10-03T08:08:28;98385.60;;;10.62
69007;BMP180;56061;51.748;19.620;2022-10-03T08:11:24;98387.20;;;10.70
69007;BMP180;56061;51.748;19.620;2022-10-03T08:17:42;98395.20;;;10.80
69007;BMP180;56061;51.748;19.620;2022-10-03T08:20:41;98388.60;;;10.90
69007;BMP180;56061;51.748;19.620;2022-10-03T08:23:40;98384.20;;;10.90
69007;BMP180;56061;51.748;19.620;2022-10-03T08:26:26;98381.60;;;11.00
69007;BMP180;56061;51.748;19.620;2022-10-03T08:29:40;98379.80;;;11.10
69007;BMP180;56061;51.748;19.620;2022-10-03T08:33:33;98370.40;;;11.28
69007;BMP180;56061;51.748;19.620;2022-10-03T08:39:11;98386.80;;;11.60
69007;BMP180;56061;51.748;19.620;2022-10-03T08:50:40;98392.00;;;12.24
69007;BMP180;56061;51.748;19.620;2022-10-03T08:56:26;98398.00;;;12.30
69007;BMP180;56061;51.748;19.620;2022-10-03T09:21:20;98422.40;;;12.50
69007;BMP180;56061;51.748;19.620;2022-10-03T09:24:29;98419.80;;;12.50
69007;BMP180;56061;51.748;19.620;2022-10-03T09:28:09;98411.80;;;12.60
69007;BMP180;56061;51.748;19.620;2022-10-03T09:30:34;98418.40;;;12.38
69007;BMP180;56061;51.748;19.620;2022-10-03T09:33:46;98444.20;;;12.30
69007;BMP180;56061;51.748;19.620;2022-10-03T09:42:38;98440.80;;;12.90
69007;BMP180;56061;51.748;19.620;2022-10-03T09:45:58;98430.40;;;13.10
69007;BMP180;56061;51.748;19.620;2022-10-03T09:57:59;98427.20;;;13.50
69007;BMP180;56061;51.748;19.620;2022-10-03T10:00:51;98422.20;;;13.50
69007;BMP180;56061;51.748;19.620;2022-10-03T10:03:38;98428.40;;;13.50
69007;BMP180;56061;51.748;19.620;2022-10-03T10:22:10;98462.60;;;12.90
69007;BMP180;56061;51.748;19.620;2022-10-03T10:25:42;98457.80;;;12.90
69007;BMP180;56061;51.748;19.620;2022-10-03T10:28:17;98449.80;;;13.00
69007;BMP180;56061;51.748;19.620;2022-10-03T10:41:35;98463.00;;;13.30
69007;BMP180;56061;51.748;19.620;2022-10-03T10:45:32;98457.00;;;13.40
69007;BMP180;56061;51.748;19.620;2022-10-03T10:55:09;98480.40;;;13.80
69007;BMP180;56061;51.748;19.620;2022-10-03T11:04:33;98492.20;;;14.44
69007;BMP180;56061;51.748;19.620;2022-10-03T11:19:28;98490.20;;;14.20
69007;BMP180;56061;51.748;19.620;2022-10-03T11:22:26;98486.40;;;14.10
69007;BMP180;56061;51.748;19.620;2022-10-03T11:28:52;98495.60;;;14.18
69007;BMP180;56061;51.748;19.620;2022-10-03T11:37:39;98493.80;;;14.00
69007;BMP180;56061;51.748;19.620;2022-10-03T11:43:42;98507.20;;;14.20
69007;BMP180;56061;51.748;19.620;2022-10-03T11:46:46;98509.40;;;14.30
69007;BMP180;56061;51.748;19.620;2022-10-03T11:52:33;98514.40;;;14.50
69007;BMP180;56061;51.748;19.620;2022-10-03T11:55:32;98519.00;;;14.60
69007;BMP180;56061;51.748;19.620;2022-10-03T12:04:27;98511.40;;;14.50
69007;BMP180;56061;51.748;19.620;2022-10-03T12:07:31;98524.80;;;14.40
69007;BMP180;56061;51.748;19.620;2022-10-03T12:10:56;98513.60;;;14.40
69007;BMP180;56061;51.748;19.620;2022-10-03T12:13:38;98510.20;;;14.40
69007;BMP180;56061;51.748;19.620;2022-10-03T12:16:25;98520.60;;;14.50
69007;BMP180;56061;51.748;19.620;2022-10-03T12:19:33;98521.80;;;14.60
69007;BMP180;56061;51.748;19.620;2022-10-03T12:22:38;98521.20;;;14.70
69007;BMP180;56061;51.748;19.620;2022-10-03T12:25:26;98536.20;;;14.70
69007;BMP180;56061;51.748;19.620;2022-10-03T12:28:18;98548.60;;;14.60
69007;BMP180;56061;51.748;19.620;2022-10-03T12:30:54;98549.60;;;14.40
69007;BMP180;56061;51.748;19.620;2022-10-03T12:33:42;98548.40;;;14.20
69007;BMP180;56061;51.748;19.620;2022-10-03T12:36:29;98553.20;;;14.00
69007;BMP180;56061;51.748;19.620;2022-10-03T12:50:40;98591.20;;;13.50
69007;BMP180;56061;51.748;19.620;2022-10-03T12:55:58;98606.60;;;13.34
69007;BMP180;56061;51.748;19.620;2022-10-03T13:01:29;98614.80;;;13.00
69007;BMP180;56061;51.748;19.620;2022-10-03T13:06:49;98612.00;;;12.80
69007;BMP180;56061;51.748;19.620;2022-10-03T13:10:05;98594.40;;;12.90
69007;BMP180;56061;51.748;19.620;2022-10-03T13:12:59;98603.40;;;13.00
69007;BMP180;56061;51.748;19.620;2022-10-03T13:15:45;98616.40;;;13.10
69007;BMP180;56061;51.748;19.620;2022-10-03T13:21:29;98604.80;;;13.10
69007;BMP180;56061;51.748;19.620;2022-10-03T13:24:20;98620.00;;;13.30
69007;BMP180;56061;51.748;19.620;2022-10-03T13:27:03;98605.20;;;13.30
69007;BMP180;56061;51.748;19.620;2022-10-03T13:30:11;98614.60;;;13.30
69007;BMP180;56061;51.748;19.620;2022-10-03T13:39:10;98617.80;;;13.30
69007;BMP180;56061;51.748;19.620;2022-10-03T13:42:12;98615.40;;;13.30
69007;BMP180;56061;51.748;19.620;2022-10-03T13:44:50;98628.40;;;13.30
69007;BMP180;56061;51.748;19.620;2022-10-03T13:47:49;98618.40;;;13.24
69007;BMP180;56061;51.748;19.620;2022-10-03T13:55:53;98669.60;;;12.26
69007;BMP180;56061;51.748;19.620;2022-10-03T14:04:48;98671.40;;;10.90
69007;BMP180;56061;51.748;19.620;2022-10-03T14:07:52;98669.20;;;10.78
69007;BMP180;56061;51.748;19.620;2022-10-03T14:13:51;98662.40;;;10.80
69007;BMP180;56061;51.748;19.620;2022-10-03T14:16:34;98668.60;;;10.90
69007;BMP180;56061;51.748;19.620;2022-10-03T14:19:24;98670.60;;;11.00
69007;BMP180;56061;51.748;19.620;2022-10-03T14:22:29;98672.20;;;11.10
69007;BMP180;56061;51.748;19.620;2022-10-03T14:25:33;98673.00;;;11.28
69007;BMP180;56061;51.748;19.620;2022-10-03T14:28:37;98665.40;;;11.52
69007;BMP180;56061;51.748;19.620;2022-10-03T14:31:19;98674.00;;;11.70
69007;BMP180;56061;51.748;19.620;2022-10-03T14:34:44;98676.20;;;11.76
69007;BMP180;56061;51.748;19.620;2022-10-03T14:37:36;98685.20;;;11.80
69007;BMP180;56061;51.748;19.620;2022-10-03T14:40:19;98690.20;;;11.90
69007;BMP180;56061;51.748;19.620;2022-10-03T14:45:55;98691.00;;;12.00
69007;BMP180;56061;51.748;19.620;2022-10-03T14:48:29;98691.80;;;12.00
69007;BMP180;56061;51.748;19.620;2022-10-03T14:51:17;98689.20;;;11.90
69007;BMP180;56061;51.748;19.620;2022-10-03T14:53:52;98697.20;;;11.90
69007;BMP180;56061;51.748;19.620;2022-10-03T14:56:22;98700.20;;;11.80
69007;BMP180;56061;51.748;19.620;2022-10-03T14:58:53;98702.60;;;11.90
69007;BMP180;56061;51.748;19.620;2022-10-03T15:01:25;98707.80;;;12.00
69007;BMP180;56061;51.748;19.620;2022-10-03T15:04:25;98697.00;;;12.00
69007;BMP180;56061;51.748;19.620;2022-10-03T15:06:56;98707.60;;;11.92
69007;BMP180;56061;51.748;19.620;2022-10-03T15:09:49;98708.60;;;11.90
69007;BMP180;56061;51.748;19.620;2022-10-03T15:12:22;98719.40;;;11.82
69007;BMP180;56061;51.748;19.620;2022-10-03T15:15:02;98714.80;;;11.80
69007;BMP180;56061;51.748;19.620;2022-10-03T15:17:35;98717.60;;;11.80
69007;BMP180;56061;51.748;19.620;2022-10-03T15:20:06;98719.00;;;11.80
69007;BMP180;56061;51.748;19.620;2022-10-03T15:22:39;98712.40;;;11.80
69007;BMP180;56061;51.748;19.620;2022-10-03T15:27:48;98705.80;;;11.86
69007;BMP180;56061;51.748;19.620;2022-10-03T15:30:27;98706.00;;;11.80
69007;BMP180;56061;51.748;19.620;2022-10-03T15:33:32;98709.80;;;11.80
69007;BMP180;56061;51.748;19.620;2022-10-03T15:36:19;98708.20;;;11.70
69007;BMP180;56061;51.748;19.620;2022-10-03T15:38:54;98707.40;;;11.70
69007;BMP180;56061;51.748;19.620;2022-10-03T15:41:55;98709.60;;;11.70
69007;BMP180;56061;51.748;19.620;2022-10-03T15:44:31;98710.00;;;11.70
69007;BMP180;56061;51.748;19.620;2022-10-03T15:47:09;98709.60;;;11.68
69007;BMP180;56061;51.748;19.620;2022-10-03T15:50:01;98718.40;;;11.66
69007;BMP180;56061;51.748;19.620;2022-10-03T15:53:00;98717.00;;;11.68
69007;BMP180;56061;51.748;19.620;2022-10-03T15:56:15;98730.40;;;11.70
69007;BMP180;56061;51.748;19.620;2022-10-03T15:58:49;98743.20;;;11.70
69007;BMP180;56061;51.748;19.620;2022-10-03T16:01:26;98767.80;;;11.60
69007;BMP180;56061;51.748;19.620;2022-10-03T16:04:00;98764.40;;;11.40
69007;BMP180;56061;51.748;19.620;2022-10-03T16:14:47;98757.40;;;10.60
69007;BMP180;56061;51.748;19.620;2022-10-03T16:17:41;98760.00;;;10.54
69007;BMP180;56061;51.748;19.620;2022-10-03T16:20:24;98753.00;;;10.40
69007;BMP180;56061;51.748;19.620;2022-10-03T16:22:58;98759.20;;;10.30
69007;BMP180;56061;51.748;19.620;2022-10-03T16:25:47;98752.40;;;10.20
69007;BMP180;56061;51.748;19.620;2022-10-03T16:28:22;98760.40;;;10.10
69007;BMP180;56061;51.748;19.620;2022-10-03T16:31:19;98760.20;;;10.10
69007;BMP180;56061;51.748;19.620;2022-10-03T16:33:53;98765.80;;;10.02
69007;BMP180;56061;51.748;19.620;2022-10-03T16:36:24;98761.20;;;9.94
69007;BMP180;56061;51.748;19.620;2022-10-03T16:38:55;98759.20;;;9.90
69007;BMP180;56061;51.748;19.620;2022-10-03T16:41:26;98754.00;;;9.86
69007;BMP180;56061;51.748;19.620;2022-10-03T16:44:01;98756.40;;;9.80
69007;BMP180;56061;51.748;19.620;2022-10-03T16:46:38;98755.00;;;9.80
69007;BMP180;56061;51.748;19.620;2022-10-03T16:52:41;98763.40;;;9.80
69007;BMP180;56061;51.748;19.620;2022-10-03T16:55:33;98768.20;;;9.80
69007;BMP180;56061;51.748;19.620;2022-10-03T17:00:48;98776.20;;;9.80
69007;BMP180;56061;51.748;19.620;2022-10-03T17:03:44;98775.20;;;9.70
69007;BMP180;56061;51.748;19.620;2022-10-03T17:06:34;98773.80;;;9.72
69007;BMP180;56061;51.748;19.620;2022-10-03T17:09:13;98776.20;;;9.80
69007;BMP180;56061;51.748;19.620;2022-10-03T17:11:50;98784.00;;;9.90
69007;BMP180;56061;51.748;19.620;2022-10-03T17:14:19;98786.20;;;9.90
69007;BMP180;56061;51.748;19.620;2022-10-03T17:17:03;98779.80;;;9.96
69007;BMP180;56061;51.748;19.620;2022-10-03T17:19:39;98779.40;;;9.94
69007;BMP180;56061;51.748;19.620;2022-10-03T17:22:20;98780.00;;;9.98
69007;BMP180;56061;51.748;19.620;2022-10-03T17:25:04;98787.20;;;10.00
69007;BMP180;56061;51.748;19.620;2022-10-03T17:27:39;98783.20;;;10.02
69007;BMP180;56061;51.748;19.620;2022-10-03T17:30:31;98783.60;;;10.10
69007;BMP180;56061;51.748;19.620;2022-10-03T17:33:15;98792.00;;;10.10
69007;BMP180;56061;51.748;19.620;2022-10-03T17:36:10;98790.60;;;10.10
69007;BMP180;56061;51.748;19.620;2022-10-03T17:39:04;98784.60;;;10.18
69007;BMP180;56061;51.748;19.620;2022-10-03T17:41:59;98784.40;;;10.20
69007;BMP180;56061;51.748;19.620;2022-10-03T17:47:11;98783.00;;;10.20
69007;BMP180;56061;51.748;19.620;2022-10-03T17:52:44;98780.00;;;10.10
69007;BMP180;56061;51.748;19.620;2022-10-03T17:55:20;98785.00;;;10.10
69007;BMP180;56061;51.748;19.620;2022-10-03T17:57:53;98786.40;;;10.10
69007;BMP180;56061;51.748;19.620;2022-10-03T18:00:26;98793.40;;;10.00
69007;BMP180;56061;51.748;19.620;2022-10-03T18:03:03;98796.00;;;10.00
69007;BMP180;56061;51.748;19.620;2022-10-03T18:05:46;98793.80;;;10.00
69007;BMP180;56061;51.748;19.620;2022-10-03T18:08:29;98794.60;;;10.00
69007;BMP180;56061;51.748;19.620;2022-10-03T18:10:59;98801.20;;;10.00
69007;BMP180;56061;51.748;19.620;2022-10-03T18:13:37;98798.20;;;10.00
69007;BMP180;56061;51.748;19.620;2022-10-03T18:16:33;98798.60;;;10.00
69007;BMP180;56061;51.748;19.620;2022-10-03T18:22:10;98804.60;;;9.90
69007;BMP180;56061;51.748;19.620;2022-10-03T18:25:12;98803.00;;;9.90
69007;BMP180;56061;51.748;19.620;2022-10-03T18:28:23;98802.80;;;9.80
69007;BMP180;56061;51.748;19.620;2022-10-03T18:30:59;98811.20;;;9.70
69007;BMP180;56061;51.748;19.620;2022-10-03T18:33:41;98815.40;;;9.70
69007;BMP180;56061;51.748;19.620;2022-10-03T18:36:27;98808.80;;;9.80
69007;BMP180;56061;51.748;19.620;2022-10-03T18:39:05;98809.20;;;9.80
69007;BMP180;56061;51.748;19.620;2022-10-03T18:41:33;98812.40;;;9.80
69007;BMP180;56061;51.748;19.620;2022-10-03T18:44:00;98810.40;;;9.80
69007;BMP180;56061;51.748;19.620;2022-10-03T18:46:41;98806.60;;;9.80
69007;BMP180;56061;51.748;19.620;2022-10-03T18:49:23;98813.20;;;9.80
69007;BMP180;56061;51.748;19.620;2022-10-03T18:54:59;98817.00;;;9.70
69007;BMP180;56061;51.748;19.620;2022-10-03T18:58:34;98811.00;;;9.72
69007;BMP180;56061;51.748;19.620;2022-10-03T19:00:49;98815.80;;;9.80
69007;BMP180;56061;51.748;19.620;2022-10-03T19:03:24;98817.20;;;9.80
69007;BMP180;56061;51.748;19.620;2022-10-03T19:06:13;98812.40;;;9.80
69007;BMP180;56061;51.748;19.620;2022-10-03T19:08:54;98818.00;;;9.80
69007;BMP180;56061;51.748;19.620;2022-10-03T19:11:32;98818.40;;;9.90
69007;BMP180;56061;51.748;19.620;2022-10-03T19:14:13;98818.20;;;10.00
69007;BMP180;56061;51.748;19.620;2022-10-03T19:17:24;98816.40;;;10.00
69007;BMP180;56061;51.748;19.620;2022-10-03T19:20:22;98820.00;;;10.10
69007;BMP180;56061;51.748;19.620;2022-10-03T19:23:10;98814.40;;;10.10
69007;BMP180;56061;51.748;19.620;2022-10-03T19:25:42;98814.40;;;10.10
69007;BMP180;56061;51.748;19.620;2022-10-03T19:28:19;98821.20;;;10.14
69007;BMP180;56061;51.748;19.620;2022-10-03T19:33:59;98821.80;;;10.20
69007;BMP180;56061;51.748;19.620;2022-10-03T19:36:36;98820.20;;;10.20
69007;BMP180;56061;51.748;19.620;2022-10-03T19:39:11;98823.40;;;10.30
69007;BMP180;56061;51.748;19.620;2022-10-03T19:41:52;98820.80;;;10.30
69007;BMP180;56061;51.748;19.620;2022-10-03T19:44:27;98819.00;;;10.30
69007;BMP180;56061;51.748;19.620;2022-10-03T19:47:21;98821.40;;;10.40
69007;BMP180;56061;51.748;19.620;2022-10-03T19:50:02;98825.00;;;10.40
69007;BMP180;56061;51.748;19.620;2022-10-03T19:52:33;98819.60;;;10.40
69007;BMP180;56061;51.748;19.620;2022-10-03T19:55:31;98823.00;;;10.40
69007;BMP180;56061;51.748;19.620;2022-10-03T19:58:10;98822.20;;;10.40
69007;BMP180;56061;51.748;19.620;2022-10-03T20:00:50;98820.00;;;10.40
69007;BMP180;56061;51.748;19.620;2022-10-03T20:06:05;98815.00;;;10.40
69007;BMP180;56061;51.748;19.620;2022-10-03T20:09:01;98819.20;;;10.40
69007;BMP180;56061;51.748;19.620;2022-10-03T20:11:44;98813.60;;;10.40
69007;BMP180;56061;51.748;19.620;2022-10-03T20:14:21;98826.00;;;10.40
69007;BMP180;56061;51.748;19.620;2022-10-03T20:17:06;98821.20;;;10.40
69007;BMP180;56061;51.748;19.620;2022-10-03T20:22:06;98811.60;;;10.30
69007;BMP180;56061;51.748;19.620;2022-10-03T20:24:38;98819.20;;;10.20
69007;BMP180;56061;51.748;19.620;2022-10-03T20:27:34;98812.00;;;10.10
69007;BMP180;56061;51.748;19.620;2022-10-03T20:30:42;98816.00;;;10.10
69007;BMP180;56061;51.748;19.620;2022-10-03T20:33:19;98808.20;;;10.20
69007;BMP180;56061;51.748;19.620;2022-10-03T20:36:23;98811.60;;;10.32
69007;BMP180;56061;51.748;19.620;2022-10-03T20:39:29;98800.40;;;10.40
69007;BMP180;56061;51.748;19.620;2022-10-03T20:42:04;98803.40;;;10.30
69007;BMP180;56061;51.748;19.620;2022-10-03T20:44:57;98801.20;;;10.30
69007;BMP180;56061;51.748;19.620;2022-10-03T20:47:59;98798.80;;;10.34
69007;BMP180;56061;51.748;19.620;2022-10-03T20:50:35;98797.20;;;10.30
69007;BMP180;56061;51.748;19.620;2022-10-03T20:53:28;98801.80;;;10.30
69007;BMP180;56061;51.748;19.620;2022-10-03T20:56:03;98800.80;;;10.30
69007;BMP180;56061;51.748;19.620;2022-10-03T20:58:46;98800.80;;;10.30
69007;BMP180;56061;51.748;19.620;2022-10-03T21:01:21;98802.20;;;10.30
69007;BMP180;56061;51.748;19.620;2022-10-03T21:04:31;98805.80;;;10.30
69007;BMP180;56061;51.748;19.620;2022-10-03T21:07:45;98807.60;;;10.20
69007;BMP180;56061;51.748;19.620;2022-10-03T21:10:35;98805.00;;;10.20
69007;BMP180;56061;51.748;19.620;2022-10-03T21:13:14;98808.00;;;10.30
69007;BMP180;56061;51.748;19.620;2022-10-03T21:15:48;98799.60;;;10.30
69007;BMP180;56061;51.748;19.620;2022-10-03T21:18:26;98798.80;;;10.40
69007;BMP180;56061;51.748;19.620;2022-10-03T21:21:36;98809.80;;;10.40
69007;BMP180;56061;51.748;19.620;2022-10-03T21:24:27;98815.60;;;10.50
69007;BMP180;56061;51.748;19.620;2022-10-03T21:27:10;98804.20;;;10.40
69007;BMP180;56061;51.748;19.620;2022-10-03T21:29:51;98806.60;;;10.40
69007;BMP180;56061;51.748;19.620;2022-10-03T21:32:57;98807.20;;;10.50
69007;BMP180;56061;51.748;19.620;2022-10-03T21:35:31;98813.40;;;10.40
69007;BMP180;56061;51.748;19.620;2022-10-03T21:41:04;98818.60;;;10.50
69007;BMP180;56061;51.748;19.620;2022-10-03T21:47:39;98821.80;;;10.60
69007;BMP180;56061;51.748;19.620;2022-10-03T21:50:18;98822.60;;;10.70
69007;BMP180;56061;51.748;19.620;2022-10-03T21:59:31;98822.60;;;10.70
69007;BMP180;56061;51.748;19.620;2022-10-03T22:04:53;98827.60;;;10.80
69007;BMP180;56061;51.748;19.620;2022-10-03T22:07:37;98829.00;;;10.80
69007;BMP180;56061;51.748;19.620;2022-10-03T22:10:17;98824.00;;;10.80
69007;BMP180;56061;51.748;19.620;2022-10-03T22:12:52;98820.00;;;10.80
69007;BMP180;56061;51.748;19.620;2022-10-03T22:15:36;98823.40;;;10.90
69007;BMP180;56061;51.748;19.620;2022-10-03T22:18:13;98815.20;;;10.90
69007;BMP180;56061;51.748;19.620;2022-10-03T22:21:08;98811.80;;;10.90
69007;BMP180;56061;51.748;19.620;2022-10-03T22:24:16;98807.80;;;10.90
69007;BMP180;56061;51.748;19.620;2022-10-03T22:27:28;98800.20;;;10.90
69007;BMP180;56061;51.748;19.620;2022-10-03T22:30:13;98805.00;;;10.90
69007;BMP180;56061;51.748;19.620;2022-10-03T22:35:50;98803.00;;;10.90
69007;BMP180;56061;51.748;19.620;2022-10-03T22:38:22;98803.00;;;10.90
69007;BMP180;56061;51.748;19.620;2022-10-03T22:40:50;98800.60;;;10.86
69007;BMP180;56061;51.748;19.620;2022-10-03T22:43:20;98796.40;;;10.84
69007;BMP180;56061;51.748;19.620;2022-10-03T22:45:50;98794.80;;;10.86
69007;BMP180;56061;51.748;19.620;2022-10-03T22:48:24;98790.80;;;10.90
69007;BMP180;56061;51.748;19.620;2022-10-03T22:50:52;98797.60;;;10.90
69007;BMP180;56061;51.748;19.620;2022-10-03T22:53:25;98785.40;;;10.90
69007;BMP180;56061;51.748;19.620;2022-10-03T22:55:57;98785.40;;;10.90
69007;BMP180;56061;51.748;19.620;2022-10-03T22:58:28;98785.20;;;10.90
69007;BMP180;56061;51.748;19.620;2022-10-03T23:00:58;98779.00;;;10.90
69007;BMP180;56061;51.748;19.620;2022-10-03T23:03:31;98783.00;;;10.90